Station Historical Data
Daily Summary for December 20, 2017 Units:  English    Metric   Both
« Previous Day
Next Day »
Daily Weekly Monthly Yearly Custom
  High: Low: Average:
Temperature: 37.2 °F 28.0 °F 32.3 °F
Dew Point: 27.2 °F 17.4 °F 22 °F
Humidity: 68% 61% 65%
Wind Speed: 13.0mph 0.0mph 5.1mph
Wind Gust: 20.0mph - -
Wind- - WNW
Pressure: 30.16 in 29.83 in -
Precipitation: 0.00 in    
Historical Graphs
 
 
Tabular Data for December 20, 2017
Time Temperature Dew Point Pressure Wind Wind Speed Wind Gust Humidity Rainfall Rate (Hourly)
00:04 37.2 °F 27.2 °F 29.83 in WSW 6.0 mph 14.0 mph 67% 0.00 in
00:09 37.1 °F 27.2 °F 29.83 in WSW 7.0 mph 14.0 mph 67% 0.00 in
00:14 37.1 °F 27.2 °F 29.83 in WSW 8.0 mph 14.0 mph 67% 0.00 in
00:19 37.0 °F 26.7 °F 29.83 in WSW 6.0 mph 17.0 mph 66% 0.00 in
00:24 37.0 °F 26.7 °F 29.83 in WSW 8.0 mph 19.0 mph 66% 0.00 in
00:29 37.0 °F 26.7 °F 29.83 in WNW 4.0 mph 16.0 mph 66% 0.00 in
00:34 36.9 °F 26.6 °F 29.83 in WSW 8.0 mph 13.0 mph 66% 0.00 in
00:39 36.8 °F 26.5 °F 29.84 in WSW 7.0 mph 15.0 mph 66% 0.00 in
00:40 36.8 °F 26.5 °F 29.84 in West 2.0 mph 15.0 mph 66% 0.00 in
00:49 36.6 °F 26.3 °F 29.83 in WSW 7.0 mph 18.0 mph 66% 0.00 in
00:54 36.6 °F 26.3 °F 29.83 in WSW 8.0 mph 18.0 mph 66% 0.00 in
00:59 36.6 °F 26.3 °F 29.84 in WSW 10.0 mph 14.0 mph 66% 0.00 in
01:04 36.5 °F 26.2 °F 29.84 in WSW 7.0 mph 14.0 mph 66% 0.00 in
01:09 36.5 °F 26.2 °F 29.84 in West 6.0 mph 15.0 mph 66% 0.00 in
01:14 36.4 °F 26.1 °F 29.84 in WSW 7.0 mph 15.0 mph 66% 0.00 in
01:19 36.3 °F 26.0 °F 29.84 in WNW 7.0 mph 16.0 mph 66% 0.00 in
01:24 36.4 °F 26.1 °F 29.85 in WSW 8.0 mph 18.0 mph 66% 0.00 in
01:29 36.4 °F 25.7 °F 29.84 in WSW 7.0 mph 17.0 mph 65% 0.00 in
01:34 36.3 °F 25.7 °F 29.85 in West 5.0 mph 15.0 mph 65% 0.00 in
01:39 36.2 °F 25.6 °F 29.85 in WSW 13.0 mph 15.0 mph 65% 0.00 in
01:44 36.2 °F 25.6 °F 29.85 in West 9.0 mph 16.0 mph 65% 0.00 in
01:49 36.1 °F 25.5 °F 29.85 in WSW 9.0 mph 20.0 mph 65% 0.00 in
01:54 36.1 °F 25.5 °F 29.86 in WSW 8.0 mph 20.0 mph 65% 0.00 in
01:59 36.2 °F 25.6 °F 29.86 in West 10.0 mph 13.0 mph 65% 0.00 in
02:04 36.2 °F 25.9 °F 29.86 in SW 7.0 mph 14.0 mph 66% 0.00 in
02:09 36.1 °F 25.8 °F 29.87 in WSW 8.0 mph 16.0 mph 66% 0.00 in
02:14 35.9 °F 25.6 °F 29.87 in West 8.0 mph 15.0 mph 66% 0.00 in
02:19 35.9 °F 25.6 °F 29.87 in WSW 7.0 mph 19.0 mph 66% 0.00 in
02:24 35.9 °F 25.6 °F 29.87 in WSW 8.0 mph 19.0 mph 66% 0.00 in
02:29 35.8 °F 25.5 °F 29.88 in WSW 8.0 mph 18.0 mph 66% 0.00 in
02:34 35.7 °F 25.4 °F 29.88 in WSW 8.0 mph 18.0 mph 66% 0.00 in
02:39 35.6 °F 25.4 °F 29.88 in WSW 7.0 mph 15.0 mph 66% 0.00 in
02:44 35.5 °F 25.3 °F 29.89 in WSW 7.0 mph 15.0 mph 66% 0.00 in
02:49 35.5 °F 25.3 °F 29.89 in WSW 6.0 mph 14.0 mph 66% 0.00 in
02:54 35.5 °F 25.3 °F 29.88 in SW 4.0 mph 13.0 mph 66% 0.00 in
02:59 35.4 °F 25.2 °F 29.88 in WSW 5.0 mph 15.0 mph 66% 0.00 in
03:04 35.3 °F 25.1 °F 29.88 in West 6.0 mph 12.0 mph 66% 0.00 in
03:09 35.4 °F 25.2 °F 29.89 in West 11.0 mph 13.0 mph 66% 0.00 in
03:14 35.3 °F 25.4 °F 29.89 in WSW 11.0 mph 13.0 mph 67% 0.00 in
03:19 35.2 °F 25.3 °F 29.89 in WNW 7.0 mph 14.0 mph 67% 0.00 in
03:24 35.3 °F 25.4 °F 29.89 in WSW 10.0 mph 15.0 mph 67% 0.00 in
03:29 35.4 °F 25.5 °F 29.89 in WSW 7.0 mph 15.0 mph 67% 0.00 in
03:34 35.4 °F 25.5 °F 29.90 in West 5.0 mph 13.0 mph 67% 0.00 in
03:39 35.4 °F 25.5 °F 29.90 in West 6.0 mph 13.0 mph 67% 0.00 in
03:44 35.5 °F 25.6 °F 29.91 in West 7.0 mph 14.0 mph 67% 0.00 in
03:49 35.4 °F 25.5 °F 29.91 in WNW 6.0 mph 14.0 mph 67% 0.00 in
03:54 35.4 °F 25.9 °F 29.91 in WNW 5.0 mph 11.0 mph 68% 0.00 in
03:59 35.3 °F 25.8 °F 29.91 in SW 5.0 mph 11.0 mph 68% 0.00 in
04:04 35.1 °F 25.6 °F 29.91 in WNW 6.0 mph 18.0 mph 68% 0.00 in
04:09 34.9 °F 25.4 °F 29.91 in West 7.0 mph 18.0 mph 68% 0.00 in
04:14 34.8 °F 25.3 °F 29.91 in West 8.0 mph 11.0 mph 68% 0.00 in
04:19 34.8 °F 25.3 °F 29.91 in West 11.0 mph 11.0 mph 68% 0.00 in
04:24 34.6 °F 24.8 °F 29.91 in West 5.0 mph 11.0 mph 67% 0.00 in
04:29 34.6 °F 24.8 °F 29.91 in WNW 5.0 mph 12.0 mph 67% 0.00 in
04:34 34.5 °F 24.7 °F 29.91 in West 2.0 mph 10.0 mph 67% 0.00 in
04:39 34.5 °F 24.7 °F 29.92 in West 5.0 mph 10.0 mph 67% 0.00 in
04:44 34.4 °F 24.6 °F 29.92 in West 5.0 mph 13.0 mph 67% 0.00 in
04:49 34.3 °F 24.5 °F 29.91 in West 5.0 mph 13.0 mph 67% 0.00 in
04:54 34.3 °F 24.5 °F 29.92 in West 5.0 mph 10.0 mph 67% 0.00 in
04:59 34.3 °F 24.5 °F 29.93 in West 4.0 mph 9.0 mph 67% 0.00 in
05:04 34.2 °F 24.4 °F 29.93 in West 5.0 mph 10.0 mph 67% 0.00 in
05:09 34.1 °F 24.3 °F 29.93 in WSW 4.0 mph 14.0 mph 67% 0.00 in
05:14 34.2 °F 24.4 °F 29.93 in West 6.0 mph 11.0 mph 67% 0.00 in
05:19 34.1 °F 24.3 °F 29.94 in NNW 8.0 mph 13.0 mph 67% 0.00 in
05:24 34.1 °F 23.9 °F 29.94 in West 6.0 mph 14.0 mph 66% 0.00 in
05:29 34.1 °F 24.3 °F 29.94 in West 5.0 mph 12.0 mph 67% 0.00 in
05:39 33.9 °F 24.1 °F 29.94 in West 5.0 mph 13.0 mph 67% 0.00 in
05:44 33.7 °F 23.9 °F 29.94 in West 6.0 mph 13.0 mph 67% 0.00 in
05:49 33.6 °F 23.8 °F 29.94 in West 5.0 mph 13.0 mph 67% 0.00 in
05:54 33.4 °F 23.6 °F 29.94 in West 5.0 mph 11.0 mph 67% 0.00 in
05:59 33.2 °F 23.4 °F 29.94 in West 5.0 mph 11.0 mph 67% 0.00 in
06:04 33.0 °F 23.2 °F 29.95 in West 5.0 mph 11.0 mph 67% 0.00 in
06:09 32.8 °F 23.0 °F 29.95 in WSW 4.0 mph 8.0 mph 67% 0.00 in
06:14 32.6 °F 22.8 °F 29.95 in West 8.0 mph 12.0 mph 67% 0.00 in
06:19 32.5 °F 23.1 °F 29.96 in West 5.0 mph 12.0 mph 68% 0.00 in
06:24 32.4 °F 23.0 °F 29.96 in West 5.0 mph 12.0 mph 68% 0.00 in
06:29 32.3 °F 22.9 °F 29.96 in West 4.0 mph 9.0 mph 68% 0.00 in
06:39 32.1 °F 22.7 °F 29.96 in West 4.0 mph 10.0 mph 68% 0.00 in
06:44 32.0 °F 22.6 °F 29.96 in NW 6.0 mph 11.0 mph 68% 0.00 in
06:49 32.0 °F 22.6 °F 29.96 in WNW 6.0 mph 11.0 mph 68% 0.00 in
06:59 32.0 °F 22.6 °F 29.96 in West 5.0 mph 8.0 mph 68% 0.00 in
07:04 32.1 °F 22.7 °F 29.97 in West 5.0 mph 10.0 mph 68% 0.00 in
07:09 32.1 °F 22.7 °F 29.97 in West 5.0 mph 9.0 mph 68% 0.00 in
07:14 32.1 °F 22.7 °F 29.97 in West 3.0 mph 10.0 mph 68% 0.00 in
07:19 32.2 °F 22.8 °F 29.97 in NW 6.0 mph 9.0 mph 68% 0.00 in
07:24 32.2 °F 22.8 °F 29.97 in WNW 6.0 mph 8.0 mph 68% 0.00 in
07:29 32.2 °F 22.8 °F 29.97 in West 5.0 mph 8.0 mph 68% 0.00 in
07:34 32.3 °F 22.9 °F 29.97 in WNW 5.0 mph 10.0 mph 68% 0.00 in
07:39 32.3 °F 22.9 °F 29.97 in West 6.0 mph 13.0 mph 68% 0.00 in
07:44 32.3 °F 22.6 °F 29.97 in WNW 6.0 mph 13.0 mph 67% 0.00 in
07:49 32.4 °F 22.7 °F 29.97 in West 5.0 mph 11.0 mph 67% 0.00 in
07:54 32.4 °F 22.7 °F 29.98 in WNW 5.0 mph 11.0 mph 67% 0.00 in
07:59 32.5 °F 22.8 °F 29.98 in West 5.0 mph 13.0 mph 67% 0.00 in
08:04 32.5 °F 22.8 °F 29.98 in WNW 5.0 mph 13.0 mph 67% 0.00 in
08:09 32.6 °F 22.8 °F 29.99 in WNW 3.0 mph 7.0 mph 67% 0.00 in
08:14 32.5 °F 22.8 °F 29.99 in West 5.0 mph 9.0 mph 67% 0.00 in
08:19 32.6 °F 23.2 °F 29.99 in West 6.0 mph 10.0 mph 68% 0.00 in
08:24 32.6 °F 23.2 °F 29.99 in West 6.0 mph 8.0 mph 68% 0.00 in
08:29 32.6 °F 23.2 °F 29.99 in West 5.0 mph 10.0 mph 68% 0.00 in
08:34 32.6 °F 23.2 °F 30.00 in WNW 4.0 mph 10.0 mph 68% 0.00 in
08:39 32.6 °F 23.2 °F 30.00 in WNW 3.0 mph 10.0 mph 68% 0.00 in
08:44 32.6 °F 23.2 °F 30.00 in WNW 4.0 mph 10.0 mph 68% 0.00 in
08:49 32.6 °F 23.2 °F 30.01 in WNW 5.0 mph 11.0 mph 68% 0.00 in
08:54 32.6 °F 23.2 °F 30.01 in WNW 3.0 mph 10.0 mph 68% 0.00 in
08:59 32.6 °F 23.2 °F 30.01 in WNW 7.0 mph 8.0 mph 68% 0.00 in
09:04 32.6 °F 22.8 °F 30.01 in WNW 4.0 mph 8.0 mph 67% 0.00 in
09:09 32.7 °F 22.9 °F 30.01 in WNW 5.0 mph 10.0 mph 67% 0.00 in
09:14 32.7 °F 22.6 °F 30.01 in NW 8.0 mph 11.0 mph 66% 0.00 in
09:19 32.7 °F 22.2 °F 30.01 in WNW 5.0 mph 11.0 mph 65% 0.00 in
09:24 32.7 °F 22.2 °F 30.02 in WNW 5.0 mph 11.0 mph 65% 0.00 in
09:29 32.7 °F 22.2 °F 30.02 in WNW 4.0 mph 10.0 mph 65% 0.00 in
09:34 32.7 °F 21.9 °F 30.02 in WNW 7.0 mph 12.0 mph 64% 0.00 in
09:39 32.7 °F 21.9 °F 30.02 in WNW 3.0 mph 11.0 mph 64% 0.00 in
09:44 32.7 °F 21.9 °F 30.03 in WNW 5.0 mph 11.0 mph 64% 0.00 in
09:49 32.7 °F 21.5 °F 30.03 in West 3.0 mph 12.0 mph 63% 0.00 in
09:54 32.7 °F 21.5 °F 30.03 in WNW 2.0 mph 9.0 mph 63% 0.00 in
09:59 32.8 °F 22.0 °F 30.03 in NW 4.0 mph 9.0 mph 64% 0.00 in
10:04 32.7 °F 21.5 °F 30.04 in WNW 5.0 mph 14.0 mph 63% 0.00 in
10:09 32.6 °F 21.4 °F 30.04 in WNW 6.0 mph 14.0 mph 63% 0.00 in
10:14 32.5 °F 21.3 °F 30.04 in NW 6.0 mph 13.0 mph 63% 0.00 in
10:19 32.4 °F 21.2 °F 30.04 in NW 6.0 mph 13.0 mph 63% 0.00 in
10:24 32.4 °F 21.2 °F 30.04 in WNW 6.0 mph 12.0 mph 63% 0.00 in
10:29 32.3 °F 20.7 °F 30.05 in NW 7.0 mph 14.0 mph 62% 0.00 in
10:34 32.3 °F 20.7 °F 30.05 in West 8.0 mph 17.0 mph 62% 0.00 in
10:39 32.3 °F 20.7 °F 30.04 in West 12.0 mph 12.0 mph 62% 0.00 in
10:44 32.3 °F 20.7 °F 30.05 in WNW 7.0 mph 15.0 mph 62% 0.00 in
10:49 32.3 °F 20.7 °F 30.04 in WNW 6.0 mph 15.0 mph 62% 0.00 in
10:54 32.2 °F 20.6 °F 30.04 in NW 6.0 mph 13.0 mph 62% 0.00 in
10:59 32.2 °F 20.6 °F 30.04 in NW 8.0 mph 14.0 mph 62% 0.00 in
11:04 32.2 °F 20.6 °F 30.04 in West 5.0 mph 11.0 mph 62% 0.00 in
11:09 32.1 °F 20.5 °F 30.04 in WNW 7.0 mph 15.0 mph 62% 0.00 in
11:14 32.0 °F 20.1 °F 30.04 in WNW 6.0 mph 13.0 mph 61% 0.00 in
11:19 32.0 °F 20.4 °F 30.04 in West 9.0 mph 14.0 mph 62% 0.00 in
11:24 32.0 °F 20.4 °F 30.04 in West 3.0 mph 13.0 mph 62% 0.00 in
11:29 32.0 °F 20.8 °F 30.04 in West 6.0 mph 13.0 mph 63% 0.00 in
11:34 32.0 °F 20.8 °F 30.04 in North 4.0 mph 10.0 mph 63% 0.00 in
11:44 32.0 °F 21.2 °F 30.04 in WNW 4.0 mph 12.0 mph 64% 0.00 in
11:49 31.9 °F 20.7 °F 30.04 in West 4.0 mph 13.0 mph 63% 0.00 in
11:54 31.9 °F 21.1 °F 30.04 in WNW 6.0 mph 13.0 mph 64% 0.00 in
11:59 32.0 °F 21.2 °F 30.03 in WNW 5.0 mph 11.0 mph 64% 0.00 in
12:04 31.9 °F 21.1 °F 30.03 in WNW 6.0 mph 14.0 mph 64% 0.00 in
12:09 32.0 °F 21.2 °F 30.03 in WNW 6.0 mph 14.0 mph 64% 0.00 in
12:14 32.0 °F 21.2 °F 30.03 in West 3.0 mph 9.0 mph 64% 0.00 in
12:15 32.0 °F 21.2 °F 30.03 in WNW 5.0 mph 10.0 mph 64% 0.00 in
12:19 32.1 °F 21.3 °F 30.03 in WNW 5.0 mph 10.0 mph 64% 0.00 in
12:24 32.0 °F 21.2 °F 30.03 in WNW 5.0 mph 11.0 mph 64% 0.00 in
12:29 32.0 °F 21.2 °F 30.02 in WNW 5.0 mph 11.0 mph 64% 0.00 in
12:34 32.2 °F 21.0 °F 30.03 in WNW 5.0 mph 11.0 mph 63% 0.00 in
12:44 32.1 °F 20.9 °F 30.02 in West 10.0 mph 11.0 mph 63% 0.00 in
12:49 32.2 °F 20.6 °F 30.02 in West 5.0 mph 11.0 mph 62% 0.00 in
12:54 32.3 °F 21.1 °F 30.02 in WNW 4.0 mph 11.0 mph 63% 0.00 in
12:59 32.3 °F 20.7 °F 30.02 in West 6.0 mph 12.0 mph 62% 0.00 in
13:04 32.2 °F 21.0 °F 30.02 in NW 9.0 mph 11.0 mph 63% 0.00 in
13:09 32.2 °F 21.0 °F 30.02 in WNW 6.0 mph 11.0 mph 63% 0.00 in
13:14 32.1 °F 20.9 °F 30.02 in WNW 5.0 mph 11.0 mph 63% 0.00 in
13:19 32.2 °F 21.4 °F 30.02 in West 8.0 mph 10.0 mph 64% 0.00 in
13:24 32.1 °F 20.9 °F 30.02 in NW 8.0 mph 10.0 mph 63% 0.00 in
13:29 32.0 °F 20.8 °F 30.02 in West 5.0 mph 13.0 mph 63% 0.00 in
13:34 32.1 °F 21.3 °F 30.02 in WNW 6.0 mph 13.0 mph 64% 0.00 in
13:39 32.2 °F 21.0 °F 30.02 in WNW 5.0 mph 10.0 mph 63% 0.00 in
13:44 32.2 °F 21.0 °F 30.02 in WNW 5.0 mph 12.0 mph 63% 0.00 in
13:49 32.1 °F 20.9 °F 30.02 in WNW 6.0 mph 12.0 mph 63% 0.00 in
13:54 32.1 °F 20.5 °F 30.02 in West 4.0 mph 9.0 mph 62% 0.00 in
13:59 32.1 °F 20.9 °F 30.02 in NW 8.0 mph 15.0 mph 63% 0.00 in
14:04 32.1 °F 20.5 °F 30.02 in North 3.0 mph 13.0 mph 62% 0.00 in
14:09 32.0 °F 20.4 °F 30.03 in NW 6.0 mph 13.0 mph 62% 0.00 in
14:14 32.0 °F 20.4 °F 30.02 in NW 5.0 mph 12.0 mph 62% 0.00 in
14:19 32.0 °F 20.4 °F 30.03 in NW 5.0 mph 15.0 mph 62% 0.00 in
14:24 32.0 °F 20.4 °F 30.03 in NW 5.0 mph 15.0 mph 62% 0.00 in
14:29 32.1 °F 20.9 °F 30.03 in WNW 4.0 mph 12.0 mph 63% 0.00 in
14:34 32.1 °F 20.9 °F 30.03 in NW 7.0 mph 10.0 mph 63% 0.00 in
14:39 32.0 °F 20.8 °F 30.03 in WNW 5.0 mph 11.0 mph 63% 0.00 in
14:49 31.9 °F 20.3 °F 30.03 in WNW 6.0 mph 12.0 mph 62% 0.00 in
14:54 31.9 °F 20.7 °F 30.03 in WNW 5.0 mph 9.0 mph 63% 0.00 in
14:59 31.8 °F 20.6 °F 30.03 in West 6.0 mph 9.0 mph 63% 0.00 in
15:04 31.8 °F 20.6 °F 30.03 in WNW 3.0 mph 10.0 mph 63% 0.00 in
15:09 31.8 °F 21.0 °F 30.03 in WNW 2.0 mph 6.0 mph 64% 0.00 in
15:14 31.8 °F 20.6 °F 30.04 in WNW 4.0 mph 8.0 mph 63% 0.00 in
15:19 31.8 °F 20.6 °F 30.04 in WNW 4.0 mph 9.0 mph 63% 0.00 in
15:24 31.8 °F 20.6 °F 30.05 in WNW 5.0 mph 12.0 mph 63% 0.00 in
15:29 31.8 °F 20.6 °F 30.05 in WNW 6.0 mph 13.0 mph 63% 0.00 in
15:34 31.7 °F 20.5 °F 30.05 in West 4.0 mph 9.0 mph 63% 0.00 in
15:44 31.7 °F 20.5 °F 30.05 in WNW 5.0 mph 10.0 mph 63% 0.00 in
15:49 31.7 °F 20.5 °F 30.05 in West 4.0 mph 10.0 mph 63% 0.00 in
15:54 31.7 °F 20.5 °F 30.06 in West 5.0 mph 9.0 mph 63% 0.00 in
15:59 31.7 °F 20.9 °F 30.06 in West 5.0 mph 11.0 mph 64% 0.00 in
16:04 31.6 °F 20.8 °F 30.06 in West 4.0 mph 11.0 mph 64% 0.00 in
16:09 31.6 °F 20.8 °F 30.06 in West 4.0 mph 8.0 mph 64% 0.00 in
16:14 31.5 °F 20.7 °F 30.06 in West 6.0 mph 9.0 mph 64% 0.00 in
16:19 31.5 °F 20.7 °F 30.06 in West 6.0 mph 6.0 mph 64% 0.00 in
16:24 31.4 °F 20.6 °F 30.06 in West 2.0 mph 9.0 mph 64% 0.00 in
16:29 31.4 °F 20.6 °F 30.07 in West 4.0 mph 9.0 mph 64% 0.00 in
16:34 31.4 °F 20.6 °F 30.07 in WSW 5.0 mph 10.0 mph 64% 0.00 in
16:39 31.4 °F 21.0 °F 30.07 in West 3.0 mph 7.0 mph 65% 0.00 in
16:44 31.4 °F 21.0 °F 30.07 in West 5.0 mph 7.0 mph 65% 0.00 in
16:49 31.3 °F 20.9 °F 30.07 in WSW 3.0 mph 9.0 mph 65% 0.00 in
16:54 31.3 °F 20.9 °F 30.08 in WSW 3.0 mph 9.0 mph 65% 0.00 in
17:04 31.2 °F 20.8 °F 30.08 in West 5.0 mph 9.0 mph 65% 0.00 in
17:09 31.2 °F 21.2 °F 30.08 in WNW 5.0 mph 10.0 mph 66% 0.00 in
17:14 31.2 °F 21.2 °F 30.08 in WSW 6.0 mph 13.0 mph 66% 0.00 in
17:19 31.2 °F 21.2 °F 30.08 in West 5.0 mph 10.0 mph 66% 0.00 in
17:24 31.2 °F 21.2 °F 30.08 in WNW 4.0 mph 8.0 mph 66% 0.00 in
17:29 31.1 °F 21.1 °F 30.08 in West 4.0 mph 9.0 mph 66% 0.00 in
17:34 31.1 °F 21.4 °F 30.08 in West 5.0 mph 9.0 mph 67% 0.00 in
17:39 31.0 °F 21.3 °F 30.09 in West 5.0 mph 10.0 mph 67% 0.00 in
17:44 31.0 °F 21.3 °F 30.09 in WNW 5.0 mph 10.0 mph 67% 0.00 in
17:49 31.0 °F 21.7 °F 30.10 in WNW 5.0 mph 11.0 mph 68% 0.00 in
17:54 31.0 °F 21.7 °F 30.10 in West 4.0 mph 9.0 mph 68% 0.00 in
17:59 31.0 °F 21.7 °F 30.10 in West 5.0 mph 9.0 mph 68% 0.00 in
18:04 30.9 °F 21.2 °F 30.10 in West 5.0 mph 11.0 mph 67% 0.00 in
18:09 30.9 °F 21.6 °F 30.10 in WNW 6.0 mph 9.0 mph 68% 0.00 in
18:14 30.9 °F 21.6 °F 30.11 in NW 7.0 mph 9.0 mph 68% 0.00 in
18:19 30.9 °F 21.6 °F 30.11 in West 5.0 mph 10.0 mph 68% 0.00 in
18:24 30.9 °F 21.6 °F 30.11 in WNW 2.0 mph 11.0 mph 68% 0.00 in
18:29 30.8 °F 21.5 °F 30.11 in WNW 5.0 mph 10.0 mph 68% 0.00 in
18:34 30.7 °F 21.4 °F 30.11 in WNW 5.0 mph 11.0 mph 68% 0.00 in
18:39 30.7 °F 21.4 °F 30.11 in NW 3.0 mph 9.0 mph 68% 0.00 in
18:44 30.6 °F 21.3 °F 30.11 in WNW 5.0 mph 9.0 mph 68% 0.00 in
18:49 30.6 °F 21.3 °F 30.11 in West 4.0 mph 8.0 mph 68% 0.00 in
18:54 30.5 °F 21.2 °F 30.11 in West 4.0 mph 6.0 mph 68% 0.00 in
18:59 30.5 °F 20.8 °F 30.11 in WNW 4.0 mph 9.0 mph 67% 0.00 in
19:04 30.5 °F 20.8 °F 30.12 in NW 7.0 mph 8.0 mph 67% 0.00 in
19:09 30.5 °F 20.8 °F 30.11 in WNW 4.0 mph 8.0 mph 67% 0.00 in
19:14 30.5 °F 20.8 °F 30.11 in WNW 4.0 mph 8.0 mph 67% 0.00 in
19:19 30.4 °F 20.7 °F 30.12 in WNW 4.0 mph 9.0 mph 67% 0.00 in
19:24 30.4 °F 20.7 °F 30.12 in WNW 4.0 mph 9.0 mph 67% 0.00 in
19:34 30.4 °F 20.7 °F 30.12 in WNW 2.0 mph 7.0 mph 67% 0.00 in
19:39 30.4 °F 20.7 °F 30.12 in WNW 1.0 mph 5.0 mph 67% 0.00 in
19:44 30.4 °F 20.7 °F 30.13 in WNW 4.0 mph 8.0 mph 67% 0.00 in
19:49 30.5 °F 20.8 °F 30.13 in WNW 4.0 mph 9.0 mph 67% 0.00 in
19:54 30.5 °F 20.8 °F 30.13 in WNW 4.0 mph 9.0 mph 67% 0.00 in
19:59 30.5 °F 20.8 °F 30.13 in WNW 4.0 mph 9.0 mph 67% 0.00 in
20:04 30.4 °F 20.4 °F 30.13 in WNW 3.0 mph 6.0 mph 66% 0.00 in
20:14 30.4 °F 20.4 °F 30.13 in NW 5.0 mph 9.0 mph 66% 0.00 in
20:19 30.4 °F 20.7 °F 30.13 in WNW 4.0 mph 10.0 mph 67% 0.00 in
20:24 30.4 °F 20.7 °F 30.14 in NW 4.0 mph 10.0 mph 67% 0.00 in
20:29 30.3 °F 20.6 °F 30.14 in NW 4.0 mph 9.0 mph 67% 0.00 in
20:34 30.1 °F 20.5 °F 30.13 in NNW 4.0 mph 9.0 mph 67% 0.00 in
20:39 30.1 °F 20.5 °F 30.13 in NW 4.0 mph 9.0 mph 67% 0.00 in
20:44 29.9 °F 19.9 °F 30.14 in NNW 5.0 mph 10.0 mph 66% 0.00 in
20:49 29.8 °F 19.8 °F 30.14 in NNW 5.0 mph 11.0 mph 66% 0.00 in
20:54 29.6 °F 19.3 °F 30.14 in NNW 6.0 mph 10.0 mph 65% 0.00 in
20:59 29.6 °F 19.3 °F 30.14 in NNW 5.0 mph 9.0 mph 65% 0.00 in
21:04 29.5 °F 19.2 °F 30.14 in NNW 3.0 mph 9.0 mph 65% 0.00 in
21:14 29.5 °F 19.2 °F 30.13 in WNW 5.0 mph 7.0 mph 65% 0.00 in
21:19 29.4 °F 19.4 °F 30.14 in NW 2.0 mph 6.0 mph 66% 0.00 in
21:24 29.4 °F 19.1 °F 30.13 in NW 3.0 mph 5.0 mph 65% 0.00 in
21:29 29.4 °F 19.1 °F 30.13 in NW 1.0 mph 5.0 mph 65% 0.00 in
21:34 29.4 °F 19.1 °F 30.13 in NW 1.0 mph 4.0 mph 65% 0.00 in
21:39 29.3 °F 19.0 °F 30.13 in NW 1.0 mph 3.0 mph 65% 0.00 in
21:44 29.3 °F 19.0 °F 30.13 in NNE 5.0 mph 7.0 mph 65% 0.00 in
21:49 29.2 °F 18.5 °F 30.14 in NNW 7.0 mph 7.0 mph 64% 0.00 in
21:54 29.1 °F 18.4 °F 30.14 in NNW 6.0 mph 10.0 mph 64% 0.00 in
22:04 29.0 °F 18.3 °F 30.14 in NW 3.0 mph 8.0 mph 64% 0.00 in
22:09 29.0 °F 18.3 °F 30.14 in NW 3.0 mph 8.0 mph 64% 0.00 in
22:15 28.9 °F 18.2 °F 30.14 in NNW 2.0 mph 8.0 mph 64% 0.00 in
22:24 28.7 °F 18.1 °F 30.15 in NNW 3.0 mph 6.0 mph 64% 0.00 in
22:29 28.6 °F 18.0 °F 30.15 in NW 1.0 mph 7.0 mph 64% 0.00 in
22:34 28.5 °F 17.9 °F 30.16 in NNW 2.0 mph 6.0 mph 64% 0.00 in
22:39 28.5 °F 17.9 °F 30.16 in NW 3.0 mph 6.0 mph 64% 0.00 in
22:44 28.4 °F 17.8 °F 30.16 in NW 2.0 mph 4.0 mph 64% 0.00 in
22:49 28.3 °F 17.7 °F 30.16 in NW 2.0 mph 5.0 mph 64% 0.00 in
22:54 28.3 °F 17.7 °F 30.16 in Calm   4.0 mph 64% 0.00 in
22:59 28.3 °F 17.7 °F 30.15 in NW 3.0 mph 4.0 mph 64% 0.00 in
23:04 28.2 °F 17.6 °F 30.16 in NW 2.0 mph 4.0 mph 64% 0.00 in
23:09 28.2 °F 17.6 °F 30.16 in NW 3.0 mph 4.0 mph 64% 0.00 in
23:14 28.1 °F 17.5 °F 30.16 in NW 2.0 mph 4.0 mph 64% 0.00 in
23:19 28.1 °F 17.5 °F 30.16 in NW 1.0 mph 3.0 mph 64% 0.00 in
23:24 28.1 °F 17.5 °F 30.16 in NW 2.0 mph 2.0 mph 64% 0.00 in
23:29 28.1 °F 17.5 °F 30.15 in Calm   4.0 mph 64% 0.00 in
23:34 28.0 °F 17.4 °F 30.15 in WNW 1.0 mph 3.0 mph 64% 0.00 in
23:39 28.0 °F 17.4 °F 30.15 in WNW 1.0 mph 3.0 mph 64% 0.00 in
23:44 28.0 °F 17.4 °F 30.15 in WNW 1.0 mph 3.0 mph 64% 0.00 in
23:49 28.0 °F 17.4 °F 30.15 in WNW 1.0 mph 3.0 mph 64% 0.00 in
23:54 28.0 °F 17.4 °F 30.15 in WNW 1.0 mph 4.0 mph 64% 0.00 in
23:59 28.0 °F 17.4 °F 30.14 in Calm   3.0 mph 64% 0.00 in
Buffalo, New York, USA
Compliments of Weather Underground - 2.25 mb